createdAt,value
2018-05-09T00:00:19.778Z,13.80
2018-05-09T00:02:47.317Z,14.00
2018-05-09T00:05:15.614Z,14.10
2018-05-09T00:07:43.134Z,14.10
2018-05-09T00:10:10.656Z,14.10
2018-05-09T00:12:38.182Z,14.00
2018-05-09T00:15:05.721Z,13.80
2018-05-09T00:17:33.231Z,13.90
2018-05-09T00:20:00.767Z,13.70
2018-05-09T00:22:29.221Z,13.80
2018-05-09T00:24:57.558Z,13.50
2018-05-09T00:27:25.078Z,13.50
2018-05-09T00:29:52.613Z,13.50
2018-05-09T00:32:20.899Z,13.50
2018-05-09T00:34:49.214Z,13.60
2018-05-09T00:37:16.737Z,13.50
2018-05-09T00:39:44.275Z,13.70
2018-05-09T00:42:11.828Z,13.80
2018-05-09T00:44:39.367Z,13.70
2018-05-09T00:47:06.933Z,13.60
2018-05-09T00:49:34.451Z,13.60
2018-05-09T00:52:01.965Z,13.60
2018-05-09T00:54:33.116Z,13.60
2018-05-09T00:57:00.630Z,13.60
2018-05-09T00:59:28.153Z,13.50
2018-05-09T01:01:55.671Z,13.50
2018-05-09T01:04:23.218Z,13.40
2018-05-09T01:06:50.738Z,13.40
2018-05-09T01:09:18.246Z,13.40
2018-05-09T01:11:45.762Z,13.50
2018-05-09T01:14:13.273Z,13.40
2018-05-09T01:16:40.790Z,13.50
2018-05-09T01:19:08.327Z,13.30
2018-05-09T01:21:35.879Z,13.20
2018-05-09T01:24:04.178Z,13.40
2018-05-09T01:26:31.724Z,13.30
2018-05-09T01:28:59.272Z,13.40
2018-05-09T01:31:27.549Z,13.60
2018-05-09T01:33:55.854Z,13.50
2018-05-09T01:36:23.391Z,13.50
2018-05-09T01:38:50.933Z,13.50
2018-05-09T01:41:19.235Z,13.20
2018-05-09T01:43:46.784Z,13.20
2018-05-09T01:46:14.340Z,13.10
2018-05-09T01:48:41.855Z,13.30
2018-05-09T01:51:09.407Z,13.20
2018-05-09T01:53:36.963Z,13.30
2018-05-09T01:56:04.484Z,13.30
2018-05-09T01:58:32.019Z,13.10
2018-05-09T02:01:00.318Z,12.90
2018-05-09T02:03:27.862Z,12.90
2018-05-09T02:05:55.412Z,13.00
2018-05-09T02:08:23.691Z,12.90
2018-05-09T02:10:51.996Z,12.90
2018-05-09T02:13:19.528Z,12.90
2018-05-09T02:15:47.055Z,12.70
2018-05-09T02:18:14.606Z,12.80
2018-05-09T02:20:42.128Z,13.00
2018-05-09T02:23:09.675Z,13.00
2018-05-09T02:25:37.235Z,12.90
2018-05-09T02:28:04.764Z,13.00
2018-05-09T02:30:32.301Z,13.00
2018-05-09T02:32:59.814Z,12.70
2018-05-09T02:35:27.324Z,12.70
2018-05-09T02:37:54.849Z,12.70
2018-05-09T02:40:22.369Z,12.80
2018-05-09T02:42:49.928Z,12.80
2018-05-09T02:45:18.211Z,12.80
2018-05-09T02:47:46.518Z,12.70
2018-05-09T02:50:14.074Z,12.70
2018-05-09T02:52:41.601Z,12.70
2018-05-09T02:55:09.885Z,12.50
2018-05-09T02:57:37.427Z,12.50
2018-05-09T03:00:04.982Z,12.60
2018-05-09T03:02:32.555Z,12.60
2018-05-09T03:05:00.101Z,12.60
2018-05-09T03:07:28.442Z,12.70
2018-05-09T03:09:56.000Z,12.70
2018-05-09T03:12:23.529Z,12.80
2018-05-09T03:14:51.085Z,12.60
2018-05-09T03:17:18.598Z,12.60
2018-05-09T03:19:46.135Z,12.60
2018-05-09T03:22:13.649Z,12.50
2018-05-09T03:24:41.170Z,12.50
2018-05-09T03:27:08.675Z,12.50
2018-05-09T03:29:36.193Z,12.50
2018-05-09T03:32:05.241Z,12.50
2018-05-09T03:34:33.572Z,12.20
2018-05-09T03:37:01.114Z,12.10
2018-05-09T03:39:28.666Z,12.10
2018-05-09T03:41:56.195Z,12.10
2018-05-09T03:44:23.753Z,12.40
2018-05-09T03:46:51.295Z,12.40
2018-05-09T03:49:18.854Z,12.10
2018-05-09T03:51:47.155Z,12.20
2018-05-09T03:54:14.713Z,12.20
2018-05-09T03:56:42.266Z,12.50
2018-05-09T03:59:09.832Z,12.50
2018-05-09T04:04:51.897Z,12.20
2018-05-09T04:07:31.184Z,12.00
2018-05-09T04:09:58.738Z,12.10
2018-05-09T04:12:26.287Z,12.00
2018-05-09T04:14:53.947Z,12.10
2018-05-09T04:17:21.545Z,12.10
2018-05-09T04:19:49.867Z,12.30
2018-05-09T04:22:17.435Z,12.30
2018-05-09T04:24:44.968Z,12.40
2018-05-09T04:27:12.509Z,12.40
2018-05-09T04:29:40.060Z,12.50
2018-05-09T04:32:07.615Z,12.30
2018-05-09T04:34:35.167Z,12.50
2018-05-09T04:37:03.372Z,12.40
2018-05-09T04:39:30.923Z,12.40
2018-05-09T04:41:58.518Z,12.40
2018-05-09T04:44:26.023Z,12.20
2018-05-09T04:46:53.563Z,12.10
2018-05-09T04:49:21.119Z,12.20
2018-05-09T04:51:48.668Z,12.40
2018-05-09T04:54:16.207Z,12.30
2018-05-09T04:56:43.727Z,12.40
2018-05-09T04:59:11.280Z,12.50
2018-05-09T05:01:38.833Z,12.60
2018-05-09T05:04:07.143Z,12.60
2018-05-09T05:06:34.663Z,12.60
2018-05-09T05:09:02.182Z,12.60
2018-05-09T05:11:29.760Z,12.50
2018-05-09T05:13:57.255Z,12.60
2018-05-09T05:16:24.803Z,12.50
2018-05-09T05:18:52.322Z,12.60
2018-05-09T05:21:19.868Z,12.90
2018-05-09T05:23:47.382Z,12.90
2018-05-09T05:26:14.899Z,12.50
2018-05-09T05:28:42.455Z,12.60
2018-05-09T05:31:10.060Z,12.60
2018-05-09T05:33:37.616Z,12.50
2018-05-09T05:36:05.148Z,12.60
2018-05-09T05:38:32.674Z,12.60
2018-05-09T05:41:00.193Z,12.50
2018-05-09T05:43:27.716Z,12.40
2018-05-09T05:45:55.259Z,12.50
2018-05-09T05:48:22.789Z,12.70
2018-05-09T05:50:50.315Z,12.80
2018-05-09T05:53:17.864Z,13.10
2018-05-09T05:55:46.152Z,13.40
2018-05-09T05:58:14.459Z,13.60
2018-05-09T06:00:41.979Z,13.60
2018-05-09T06:03:09.532Z,13.80
2018-05-09T06:05:37.047Z,13.90
2018-05-09T06:08:04.619Z,14.00
2018-05-09T06:10:32.151Z,14.10
2018-05-09T06:12:59.700Z,14.00
2018-05-09T06:15:27.256Z,14.00
2018-05-09T06:17:54.808Z,14.00
2018-05-09T06:20:22.372Z,14.00
2018-05-09T06:22:49.895Z,14.00
2018-05-09T06:25:17.426Z,14.00
2018-05-09T06:27:44.972Z,14.20
2018-05-09T06:30:12.495Z,14.40
2018-05-09T06:32:40.777Z,14.60
2018-05-09T06:35:08.319Z,14.50
2018-05-09T06:37:35.925Z,14.80
2018-05-09T06:40:03.419Z,15.00
2018-05-09T06:42:30.955Z,15.20
2018-05-09T06:44:58.500Z,15.30
2018-05-09T06:47:26.039Z,15.40
2018-05-09T06:49:53.644Z,15.30
2018-05-09T06:52:21.136Z,15.40
2018-05-09T06:54:48.676Z,15.60
2018-05-09T06:57:16.187Z,15.70
2018-05-09T06:59:43.703Z,15.70
2018-05-09T07:02:11.218Z,15.90
2018-05-09T07:04:38.760Z,16.00
2018-05-09T07:07:06.316Z,16.30
2018-05-09T07:09:33.862Z,16.40
2018-05-09T07:12:02.135Z,16.70
2018-05-09T07:14:30.424Z,17.00
2018-05-09T07:16:57.979Z,17.00
2018-05-09T07:19:25.529Z,17.10
2018-05-09T07:21:53.067Z,17.20
2018-05-09T07:24:20.619Z,17.50
2018-05-09T07:26:48.167Z,17.60
2018-05-09T07:29:15.686Z,17.70
2018-05-09T07:31:43.242Z,18.10
2018-05-09T07:34:10.811Z,18.30
2018-05-09T07:36:38.323Z,18.40
2018-05-09T07:39:06.642Z,18.80
2018-05-09T07:41:34.197Z,18.70
2018-05-09T07:44:01.738Z,18.90
2018-05-09T07:46:29.283Z,19.10
2018-05-09T07:48:56.799Z,19.00
2018-05-09T07:51:24.349Z,19.10
2018-05-09T07:53:51.863Z,19.30
2018-05-09T07:56:19.396Z,19.60
2018-05-09T07:58:46.924Z,19.80
2018-05-09T08:01:14.451Z,20.00
2018-05-09T08:03:42.743Z,20.10
2018-05-09T08:06:11.050Z,20.30
2018-05-09T08:08:38.594Z,20.30
2018-05-09T08:11:06.138Z,20.40
2018-05-09T08:13:33.652Z,20.60
2018-05-09T08:16:01.159Z,20.70
2018-05-09T08:18:28.672Z,21.00
2018-05-09T08:20:56.178Z,21.50
2018-05-09T08:23:23.785Z,21.60
2018-05-09T08:25:51.291Z,21.50
2018-05-09T08:28:18.794Z,21.90
2018-05-09T08:30:46.313Z,22.20
2018-05-09T08:33:13.863Z,22.00
2018-05-09T08:35:41.381Z,21.80
2018-05-09T08:38:08.902Z,22.00
2018-05-09T08:40:36.449Z,22.10
2018-05-09T08:43:03.990Z,21.90
2018-05-09T08:45:32.267Z,22.30
2018-05-09T08:48:00.561Z,22.40
2018-05-09T08:50:28.074Z,22.40
2018-05-09T08:52:55.627Z,22.30
2018-05-09T08:55:23.232Z,22.30
2018-05-09T08:57:50.667Z,22.40
2018-05-09T09:00:19.685Z,22.80
2018-05-09T09:02:48.014Z,23.10
2018-05-09T09:05:15.525Z,23.00
2018-05-09T09:07:43.074Z,22.90
2018-05-09T09:10:11.344Z,23.00
2018-05-09T09:12:38.918Z,23.00
2018-05-09T09:15:07.244Z,23.20
2018-05-09T09:17:34.763Z,23.20
2018-05-09T09:20:03.138Z,23.50
2018-05-09T09:22:30.646Z,23.50
2018-05-09T09:24:58.162Z,23.20
2018-05-09T09:27:25.677Z,23.10
2018-05-09T09:29:53.192Z,23.70
2018-05-09T09:32:20.743Z,23.90
2018-05-09T09:34:48.261Z,23.70
2018-05-09T09:37:17.313Z,23.80
2018-05-09T09:39:44.891Z,23.80
2018-05-09T09:42:12.464Z,24.20
2018-05-09T09:44:39.979Z,24.30
2018-05-09T09:47:07.532Z,24.20
2018-05-09T09:49:35.088Z,24.10
2018-05-09T09:52:02.633Z,24.00
2018-05-09T09:54:30.182Z,24.20
2018-05-09T09:56:57.703Z,24.10
2018-05-09T09:59:25.236Z,24.60
2018-05-09T10:01:52.758Z,24.60
2018-05-09T10:04:20.269Z,25.00
2018-05-09T10:06:47.803Z,25.00
2018-05-09T10:09:15.376Z,25.40
2018-05-09T10:11:42.896Z,24.90
2018-05-09T10:14:10.410Z,25.30
2018-05-09T10:16:37.925Z,25.80
2018-05-09T10:19:06.220Z,24.80
2018-05-09T10:21:33.758Z,24.80
2018-05-09T10:24:01.294Z,24.40
2018-05-09T10:26:28.839Z,24.10
2018-05-09T10:28:56.391Z,24.30
2018-05-09T10:31:23.998Z,24.30
2018-05-09T10:33:51.465Z,24.70
2018-05-09T10:36:19.021Z,25.70
2018-05-09T10:38:47.300Z,26.10
2018-05-09T10:41:15.604Z,26.30
2018-05-09T10:43:43.158Z,26.30
2018-05-09T10:46:10.722Z,26.00
2018-05-09T10:48:39.223Z,26.20
2018-05-09T10:51:06.771Z,26.00
2018-05-09T10:53:34.327Z,25.70
2018-05-09T10:56:01.843Z,25.40
2018-05-09T10:58:29.400Z,24.90
2018-05-09T11:00:57.708Z,24.50
2018-05-09T11:03:25.250Z,24.50
2018-05-09T11:05:52.808Z,24.70
2018-05-09T11:08:20.837Z,25.00
2018-05-09T11:10:48.380Z,25.00
2018-05-09T11:13:15.927Z,24.80
2018-05-09T11:15:43.448Z,24.90
2018-05-09T11:18:11.719Z,24.60
2018-05-09T11:20:39.990Z,24.40
2018-05-09T11:23:07.516Z,24.30
2018-05-09T11:25:35.263Z,24.30
2018-05-09T11:28:02.779Z,24.20
2018-05-09T11:30:31.100Z,24.20
2018-05-09T11:32:58.625Z,24.10
2018-05-09T11:35:26.163Z,24.00
2018-05-09T11:37:54.445Z,24.00
2018-05-09T11:40:22.757Z,24.00
2018-05-09T11:42:50.274Z,24.00
2018-05-09T11:45:17.782Z,23.90
2018-05-09T11:47:45.313Z,23.90
2018-05-09T11:50:12.925Z,23.80
2018-05-09T11:52:40.440Z,23.70
2018-05-09T11:55:07.996Z,23.40
2018-05-09T11:57:35.511Z,23.50
2018-05-09T12:00:03.059Z,23.50
2018-05-09T12:02:30.689Z,23.70
2018-05-09T12:04:58.151Z,24.60
2018-05-09T12:07:25.668Z,25.30
2018-05-09T12:09:53.198Z,25.40
2018-05-09T12:12:20.747Z,26.10
2018-05-09T12:14:48.268Z,26.10
2018-05-09T12:17:15.784Z,26.10
2018-05-09T12:19:43.329Z,26.10
2018-05-09T12:22:10.907Z,26.40
2018-05-09T12:24:39.227Z,26.30
2018-05-09T12:27:06.740Z,26.20
2018-05-09T12:29:34.277Z,26.40
2018-05-09T12:32:01.794Z,26.50
2018-05-09T12:34:29.307Z,26.40
2018-05-09T12:36:56.824Z,26.40
2018-05-09T12:39:24.354Z,26.60
2018-05-09T12:41:52.657Z,26.80
2018-05-09T12:44:20.199Z,26.80
2018-05-09T12:46:47.797Z,26.80
2018-05-09T12:49:15.318Z,26.70
2018-05-09T12:51:42.860Z,26.90
2018-05-09T12:54:11.131Z,26.50
2018-05-09T12:56:39.435Z,26.60
2018-05-09T12:59:06.991Z,26.60
2018-05-09T13:01:34.556Z,26.40
2018-05-09T13:04:02.071Z,26.00
2018-05-09T13:06:29.581Z,26.00
2018-05-09T13:08:57.088Z,26.10
2018-05-09T13:11:25.378Z,26.30
2018-05-09T13:13:52.921Z,26.50
2018-05-09T13:16:20.437Z,26.40
2018-05-09T13:18:47.961Z,26.20
2018-05-09T13:21:15.520Z,26.00
2018-05-09T13:23:43.820Z,25.60
2018-05-09T13:26:11.327Z,25.60
2018-05-09T13:28:38.860Z,25.50
2018-05-09T13:31:06.395Z,25.40
2018-05-09T13:33:33.904Z,25.90
2018-05-09T13:36:02.927Z,25.90
2018-05-09T13:38:31.206Z,26.00
2018-05-09T13:40:59.405Z,25.90
2018-05-09T13:43:26.956Z,25.90
2018-05-09T13:45:54.465Z,25.90
2018-05-09T13:48:21.982Z,26.10
2018-05-09T13:50:49.530Z,26.00
2018-05-09T13:53:17.074Z,25.80
2018-05-09T13:55:44.604Z,25.50
2018-05-09T13:58:12.129Z,25.50
2018-05-09T14:00:39.650Z,25.90
2018-05-09T14:03:07.174Z,25.90
2018-05-09T14:05:34.710Z,25.90
2018-05-09T14:08:02.259Z,26.20
2018-05-09T14:10:29.928Z,26.10
2018-05-09T14:12:57.446Z,26.00
2018-05-09T14:15:25.785Z,26.00
2018-05-09T14:17:53.287Z,26.00
2018-05-09T14:20:20.797Z,26.00
2018-05-09T14:22:48.342Z,25.90
2018-05-09T14:25:15.928Z,26.00
2018-05-09T14:27:43.467Z,25.90
2018-05-09T14:30:10.975Z,25.90
2018-05-09T14:32:39.413Z,25.90
2018-05-09T14:35:06.927Z,25.90
2018-05-09T14:37:34.469Z,25.80
2018-05-09T14:40:02.024Z,25.90
2018-05-09T14:42:30.337Z,26.00
2018-05-09T14:44:57.871Z,26.00
2018-05-09T14:47:25.442Z,26.10
2018-05-09T14:49:52.948Z,26.00
2018-05-09T14:52:20.450Z,26.10
2018-05-09T14:54:47.983Z,25.90
2018-05-09T14:57:15.527Z,25.80
2018-05-09T14:59:43.083Z,25.60
2018-05-09T15:02:10.667Z,25.50
2018-05-09T15:04:38.978Z,26.00
2018-05-09T15:07:07.265Z,25.90
2018-05-09T15:09:34.812Z,25.90
2018-05-09T15:12:02.367Z,26.00
2018-05-09T15:14:29.878Z,25.80
2018-05-09T15:16:57.384Z,25.60
2018-05-09T15:19:24.961Z,25.40
2018-05-09T15:21:52.502Z,25.50
2018-05-09T15:24:20.287Z,25.50
2018-05-09T15:26:47.819Z,25.60
2018-05-09T15:29:16.109Z,25.60
2018-05-09T15:31:43.678Z,25.60
2018-05-09T15:34:11.219Z,25.70
2018-05-09T15:36:38.759Z,25.60
2018-05-09T15:39:06.431Z,25.70
2018-05-09T15:41:33.889Z,25.80
2018-05-09T15:44:01.424Z,25.70
2018-05-09T15:46:29.754Z,25.60
2018-05-09T15:48:57.291Z,25.60
2018-05-09T15:51:24.859Z,25.80
2018-05-09T15:53:52.412Z,25.70
2018-05-09T15:56:19.926Z,25.60
2018-05-09T15:58:47.438Z,25.50
2018-05-09T16:01:14.994Z,25.40
2018-05-09T16:03:42.521Z,25.60
2018-05-09T16:06:10.032Z,25.40
2018-05-09T16:08:37.570Z,25.30
2018-05-09T16:11:05.131Z,25.30
2018-05-09T16:13:32.695Z,25.30
2018-05-09T16:16:00.237Z,25.20
2018-05-09T16:18:28.526Z,25.30
2018-05-09T16:20:56.071Z,25.20
2018-05-09T16:23:23.608Z,25.40
2018-05-09T16:25:51.134Z,25.30
2018-05-09T16:28:18.682Z,25.30
2018-05-09T16:30:46.231Z,25.40
2018-05-09T16:33:13.750Z,25.40
2018-05-09T16:35:41.312Z,25.40
2018-05-09T16:38:09.637Z,25.60
2018-05-09T16:40:37.185Z,25.60
2018-05-09T16:43:04.765Z,25.60
2018-05-09T16:45:32.287Z,25.60
2018-05-09T16:47:59.830Z,25.50
2018-05-09T16:50:28.152Z,25.40
2018-05-09T16:52:55.719Z,25.30
2018-05-09T16:55:23.264Z,25.30
2018-05-09T16:57:50.808Z,25.30
2018-05-09T17:00:18.483Z,25.30
2018-05-09T17:02:46.029Z,25.20
2018-05-09T17:05:13.545Z,25.20
2018-05-09T17:07:41.058Z,25.10
2018-05-09T17:10:08.589Z,25.10
2018-05-09T17:12:36.876Z,25.00
2018-05-09T17:15:04.386Z,25.00
2018-05-09T17:17:31.933Z,25.00
2018-05-09T17:19:59.451Z,25.00
2018-05-09T17:22:33.570Z,25.00
2018-05-09T17:25:01.084Z,24.90
2018-05-09T17:27:28.619Z,24.90
2018-05-09T17:29:56.139Z,24.80
2018-05-09T17:32:23.664Z,24.80
2018-05-09T17:34:51.184Z,24.70
2018-05-09T17:37:19.527Z,24.70
2018-05-09T17:39:47.042Z,24.70
2018-05-09T17:42:14.588Z,24.60
2018-05-09T17:44:42.150Z,24.60
2018-05-09T17:47:09.710Z,24.60
2018-05-09T17:49:37.265Z,24.40
2018-05-09T17:52:04.820Z,24.40
2018-05-09T17:54:32.362Z,24.40
2018-05-09T17:56:59.893Z,24.30
2018-05-09T17:59:28.213Z,24.30
2018-05-09T18:01:55.758Z,24.30
2018-05-09T18:04:24.641Z,24.20
2018-05-09T18:06:52.206Z,24.20
2018-05-09T18:09:19.725Z,24.10
2018-05-09T18:11:47.272Z,24.10
2018-05-09T18:14:14.848Z,24.00
2018-05-09T18:16:42.384Z,23.70
2018-05-09T18:19:09.919Z,23.40
2018-05-09T18:21:37.454Z,23.20
2018-05-09T18:24:05.018Z,23.20
2018-05-09T18:26:32.566Z,22.90
2018-05-09T18:29:00.144Z,22.90
2018-05-09T18:31:27.691Z,23.00
2018-05-09T18:33:55.227Z,22.90
2018-05-09T18:36:23.510Z,22.40
2018-05-09T18:38:51.786Z,22.40
2018-05-09T18:41:20.071Z,22.20
2018-05-09T18:43:47.592Z,22.20
2018-05-09T18:46:15.144Z,22.00
2018-05-09T18:48:43.461Z,21.70
2018-05-09T18:51:10.978Z,21.60
2018-05-09T18:53:38.535Z,21.50
2018-05-09T18:56:06.055Z,21.50
2018-05-09T18:58:33.587Z,21.50
2018-05-09T19:01:01.120Z,21.50
2018-05-09T19:03:29.413Z,21.30
2018-05-09T19:05:58.140Z,21.20
2018-05-09T19:08:25.696Z,21.10
2018-05-09T19:10:53.231Z,21.00
2018-05-09T19:13:21.548Z,20.80
2018-05-09T19:15:49.094Z,20.70
2018-05-09T19:18:16.616Z,20.60
2018-05-09T19:20:44.960Z,20.30
2018-05-09T19:23:12.583Z,20.30
2018-05-09T19:25:40.050Z,20.40
2018-05-09T19:28:07.622Z,20.40
2018-05-09T19:30:35.145Z,20.60
2018-05-09T19:33:02.669Z,20.60
2018-05-09T19:35:30.225Z,20.50
2018-05-09T19:37:57.785Z,20.60
2018-05-09T19:40:25.361Z,20.80
2018-05-09T19:42:53.879Z,21.00
2018-05-09T19:45:21.416Z,21.00
2018-05-09T19:47:48.986Z,21.00
2018-05-09T19:50:16.575Z,20.90
2018-05-09T19:52:44.116Z,20.90
2018-05-09T19:55:11.794Z,20.70
2018-05-09T19:57:39.261Z,20.60
2018-05-09T20:00:06.795Z,20.50
2018-05-09T20:02:34.355Z,20.30
2018-05-09T20:05:01.878Z,20.30
2018-05-09T20:07:29.435Z,20.40
2018-05-09T20:09:56.958Z,20.40
2018-05-09T20:12:24.475Z,20.40
2018-05-09T20:14:52.758Z,20.40
2018-05-09T20:17:20.276Z,20.40
2018-05-09T20:19:47.805Z,20.40
2018-05-09T20:22:15.360Z,20.30
2018-05-09T20:24:42.881Z,19.90
2018-05-09T20:27:11.165Z,19.80
2018-05-09T20:29:38.719Z,19.80
2018-05-09T20:32:17.971Z,19.80
2018-05-09T20:34:45.524Z,19.90
2018-05-09T20:37:13.105Z,19.90
2018-05-09T20:39:40.623Z,19.60
2018-05-09T20:42:08.182Z,19.50
2018-05-09T20:44:36.559Z,19.10
2018-05-09T20:47:04.137Z,19.10
2018-05-09T20:49:31.690Z,18.90
2018-05-09T20:51:59.230Z,18.60
2018-05-09T20:54:27.531Z,18.60
2018-05-09T20:56:55.072Z,18.60
2018-05-09T20:59:23.904Z,18.80
2018-05-09T21:01:51.427Z,18.80
2018-05-09T21:04:18.957Z,18.90
2018-05-09T21:06:47.278Z,18.80
2018-05-09T21:09:14.879Z,18.80
2018-05-09T21:11:54.191Z,18.60
2018-05-09T21:14:21.722Z,18.80
2018-05-09T21:16:49.236Z,18.70
2018-05-09T21:19:16.805Z,18.70
2018-05-09T21:21:45.094Z,18.80
2018-05-09T21:24:12.641Z,18.80
2018-05-09T21:26:41.012Z,18.80
2018-05-09T21:29:08.532Z,18.80
2018-05-09T21:31:36.090Z,18.80
2018-05-09T21:34:03.645Z,18.60
2018-05-09T21:36:31.197Z,18.40
2018-05-09T21:38:58.734Z,18.30
2018-05-09T21:41:27.067Z,17.90
2018-05-09T21:43:54.629Z,17.90
2018-05-09T21:46:22.190Z,17.50
2018-05-09T21:48:49.707Z,17.30
2018-05-09T21:51:17.221Z,17.30
2018-05-09T21:53:44.775Z,17.00
2018-05-09T21:56:13.466Z,16.80
2018-05-09T21:58:40.994Z,16.80
2018-05-09T22:01:08.581Z,16.70
2018-05-09T22:03:36.102Z,16.90
2018-05-09T22:06:03.632Z,17.00
2018-05-09T22:08:31.907Z,17.10
2018-05-09T22:11:00.212Z,16.80
2018-05-09T22:13:27.738Z,16.80
2018-05-09T22:15:55.304Z,16.60
2018-05-09T22:18:22.835Z,16.40
2018-05-09T22:20:50.381Z,16.30
2018-05-09T22:23:17.900Z,16.30
2018-05-09T22:25:45.431Z,16.30
2018-05-09T22:28:12.983Z,16.20
2018-05-09T22:30:41.367Z,16.00
2018-05-09T22:33:09.650Z,16.10
2018-05-09T22:35:37.964Z,16.00
2018-05-09T22:38:05.512Z,16.10
2018-05-09T22:40:33.046Z,16.00
2018-05-09T22:43:01.328Z,16.10
2018-05-09T22:45:29.620Z,16.10
2018-05-09T22:47:57.197Z,16.10
2018-05-09T22:50:24.740Z,16.00
2018-05-09T22:52:52.263Z,16.00
2018-05-09T22:55:19.771Z,15.90
2018-05-09T22:57:47.277Z,15.90
2018-05-09T23:00:16.333Z,15.90
2018-05-09T23:02:43.874Z,15.90
2018-05-09T23:05:11.390Z,15.90
2018-05-09T23:07:38.928Z,16.00
2018-05-09T23:10:06.484Z,16.00
2018-05-09T23:12:34.002Z,15.90
2018-05-09T23:15:01.562Z,15.90
2018-05-09T23:17:29.131Z,15.80
2018-05-09T23:19:56.660Z,15.70
2018-05-09T23:22:24.216Z,15.60
2018-05-09T23:24:52.512Z,15.50
2018-05-09T23:27:20.789Z,15.50
2018-05-09T23:29:49.103Z,15.40
2018-05-09T23:32:16.649Z,15.40
2018-05-09T23:34:44.185Z,15.40
2018-05-09T23:37:12.481Z,15.70
2018-05-09T23:39:40.027Z,15.70
2018-05-09T23:42:07.549Z,15.60
2018-05-09T23:44:35.076Z,15.60
2018-05-09T23:47:02.591Z,15.50
2018-05-09T23:49:30.111Z,15.50
2018-05-09T23:51:57.653Z,15.40
2018-05-09T23:54:25.196Z,15.40
2018-05-09T23:56:52.729Z,15.30
2018-05-09T23:59:20.280Z,15.40
